Time,TemperatureF,DewpointF,PressureIn,WindDirection,WindDirectionDegrees,WindSpeedMPH,WindSpeedGustMPH,Humidity,HourlyPrecipIn,Conditions,Clouds,dailyrainin,SolarRadiationWatts/m^2,SoftwareType,DateUTC
2013-02-28 12:00:00,37.0,3.0,-100.00,NW,323,1.0,3.0,23,-99.99,,,0.00,826.599976,,2013-02-28 19:00:00,
2013-02-28 12:52:00,37.0,3.0,-100.00,NW,323,1.0,3.0,23,-99.99,,,0.00,826.599976,,2013-02-28 19:52:00,
2013-02-28 13:00:00,39.0,0.0,-100.00,WNW,284,2.0,6.0,19,-99.99,,,0.00,846.500000,,2013-02-28 20:00:00,
2013-02-28 13:52:00,39.0,0.0,-100.00,WNW,284,2.0,6.0,19,-99.99,,,0.00,846.500000,,2013-02-28 20:52:00,
2013-02-28 14:00:00,41.0,-1.0,-100.00,WNW,298,2.0,5.0,17,-99.99,,,0.00,782.099976,,2013-02-28 21:00:00,
2013-02-28 14:52:00,41.0,-1.0,-100.00,WNW,298,2.0,5.0,17,-99.99,,,0.00,782.099976,,2013-02-28 21:52:00,
2013-02-28 15:00:00,37.0,-4.0,-100.00,WNW,298,2.0,5.0,17,-99.99,,,0.00,444.100006,,2013-02-28 22:00:00,
2013-02-28 15:52:00,37.0,-4.0,-100.00,WNW,298,2.0,5.0,17,-99.99,,,0.00,444.100006,,2013-02-28 22:52:00,
2013-02-28 16:00:00,35.0,1.0,-100.00,WNW,290,2.0,7.0,23,-99.99,,,0.00,50.099998,,2013-02-28 23:00:00,
2013-02-28 16:53:00,35.0,1.0,-100.00,WNW,290,2.0,7.0,23,-99.99,,,0.00,50.099998,,2013-02-28 23:53:00,
2013-02-28 17:00:00,33.0,2.0,-100.00,West,277,1.0,5.0,27,-99.99,,,0.00,22.000000,,2013-03-01 00:00:00,
2013-02-28 17:52:00,33.0,2.0,-100.00,West,277,1.0,5.0,27,-99.99,,,0.00,22.000000,,2013-03-01 00:52:00,
2013-02-28 18:00:00,31.0,3.0,-100.00,WSW,257,1.0,4.0,30,-99.99,,,0.00,7.900000,,2013-03-01 01:00:00,
2013-02-28 18:52:00,31.0,3.0,-100.00,WSW,257,1.0,4.0,30,-99.99,,,0.00,7.900000,,2013-03-01 01:52:00,
2013-02-28 19:00:00,31.0,4.0,-100.00,West,260,2.0,5.0,32,-99.99,,,0.00,0.000000,,2013-03-01 02:00:00,
2013-02-28 19:52:00,31.0,4.0,-100.00,West,260,2.0,5.0,32,-99.99,,,0.00,0.000000,,2013-03-01 02:52:00,
2013-02-28 20:00:00,29.0,6.0,-100.00,West,269,2.0,4.0,37,-99.99,,,0.00,0.000000,,2013-03-01 03:00:00,
2013-02-28 20:52:00,29.0,6.0,-100.00,West,269,2.0,4.0,37,-99.99,,,0.00,0.000000,,2013-03-01 03:52:00,
2013-02-28 21:00:00,28.0,7.0,-100.00,West,263,2.0,5.0,40,-99.99,,,-99.99,0.000000,,2013-03-01 04:00:00,
2013-02-28 21:52:00,28.0,7.0,-100.00,West,263,2.0,5.0,40,-99.99,,,-99.99,0.000000,,2013-03-01 04:52:00,